createdAt,value
2022-09-01T00:01:44.819Z,49.63
2022-09-01T00:04:16.101Z,49.73
2022-09-01T00:06:43.815Z,49.74
2022-09-01T00:09:14.461Z,49.50
2022-09-01T00:11:43.066Z,49.55
2022-09-01T00:14:24.811Z,49.61
2022-09-01T00:17:01.959Z,49.45
2022-09-01T00:19:29.716Z,49.71
2022-09-01T00:21:57.161Z,49.56
2022-09-01T00:24:26.249Z,49.58
2022-09-01T00:26:53.865Z,49.57
2022-09-01T00:29:20.520Z,49.55
2022-09-01T00:31:47.314Z,49.42
2022-09-01T00:34:14.607Z,49.68
2022-09-01T00:36:41.206Z,49.88
2022-09-01T00:39:09.037Z,49.79
2022-09-01T00:41:39.028Z,49.52
2022-09-01T00:44:12.161Z,49.66
2022-09-01T00:46:49.959Z,49.69
2022-09-01T00:49:35.321Z,49.67
2022-09-01T00:52:11.368Z,49.70
2022-09-01T00:54:43.548Z,49.61
2022-09-01T00:57:12.836Z,49.60
2022-09-01T00:59:46.098Z,49.36
2022-09-01T01:02:13.142Z,49.62
2022-09-01T01:04:41.042Z,49.37
2022-09-01T01:07:08.997Z,49.56
2022-09-01T01:09:41.696Z,49.37
2022-09-01T01:12:13.758Z,49.54
2022-09-01T01:14:41.757Z,49.30
2022-09-01T01:17:12.636Z,49.55
2022-09-01T01:20:04.326Z,49.36
2022-09-01T01:23:02.476Z,49.65
2022-09-01T01:25:30.156Z,49.45
2022-09-01T01:28:12.049Z,49.58
2022-09-01T01:30:41.224Z,49.51
2022-09-01T01:33:07.946Z,49.48
2022-09-01T01:35:35.475Z,49.75
2022-09-01T01:38:02.616Z,49.54
2022-09-01T01:40:30.169Z,49.18
2022-09-01T01:42:57.295Z,49.75
2022-09-01T01:45:25.299Z,49.54
2022-09-01T01:47:53.493Z,49.56
2022-09-01T01:50:35.597Z,49.53
2022-09-01T01:53:11.546Z,49.56
2022-09-01T01:55:40.187Z,49.58
2022-09-01T01:58:08.138Z,49.45
2022-09-01T02:00:35.125Z,49.66
2022-09-01T02:03:01.743Z,49.51
2022-09-01T02:05:32.523Z,49.64
2022-09-01T02:08:11.223Z,49.72
2022-09-01T02:10:44.139Z,49.62
2022-09-01T02:13:16.403Z,49.55
2022-09-01T02:15:49.390Z,49.52
2022-09-01T02:18:27.933Z,49.61
2022-09-01T02:20:55.392Z,49.64
2022-09-01T02:23:25.745Z,49.64
2022-09-01T02:28:45.816Z,49.65
2022-09-01T02:31:12.680Z,49.63
2022-09-01T02:33:44.140Z,49.48
2022-09-01T02:36:14.253Z,49.53
2022-09-01T02:38:46.076Z,49.57
2022-09-01T02:41:14.473Z,49.62
2022-09-01T02:43:44.508Z,49.46
2022-09-01T02:46:11.884Z,49.53
2022-09-01T02:48:41.639Z,49.53
2022-09-01T02:51:11.394Z,49.44
2022-09-01T02:53:39.405Z,49.49
2022-09-01T02:56:12.689Z,49.24
2022-09-01T02:58:45.723Z,49.38
2022-09-01T03:01:20.519Z,49.52
2022-09-01T03:03:50.971Z,49.64
2022-09-01T03:06:19.844Z,49.49
2022-09-01T03:08:47.492Z,49.42
2022-09-01T03:11:14.158Z,49.46
2022-09-01T03:13:42.022Z,49.63
2022-09-01T03:16:10.499Z,49.47
2022-09-01T03:18:38.112Z,49.65
2022-09-01T03:21:08.337Z,49.47
2022-09-01T03:23:38.120Z,49.49
2022-09-01T03:26:05.139Z,49.46
2022-09-01T03:28:32.071Z,49.56
2022-09-01T03:30:59.320Z,49.40
2022-09-01T03:33:26.970Z,49.55
2022-09-01T03:35:54.799Z,49.52
2022-09-01T03:38:22.123Z,49.76
2022-09-01T03:40:53.965Z,49.55
2022-09-01T03:43:24.914Z,49.42
2022-09-01T03:45:51.572Z,49.48
2022-09-01T03:48:18.548Z,49.47
2022-09-01T03:50:46.352Z,49.48
2022-09-01T03:53:22.823Z,49.46
2022-09-01T03:55:50.239Z,49.45
2022-09-01T03:58:21.760Z,49.29
2022-09-01T04:00:55.385Z,49.59
2022-09-01T04:03:29.145Z,49.39
2022-09-01T04:05:59.467Z,49.33
2022-09-01T04:08:32.429Z,49.54
2022-09-01T04:11:05.129Z,49.30
2022-09-01T04:13:37.592Z,49.54
2022-09-01T04:16:31.199Z,49.49
2022-09-01T04:18:57.908Z,49.49
2022-09-01T04:21:24.445Z,49.47
2022-09-01T04:23:51.029Z,49.40
2022-09-01T04:26:23.958Z,49.47
2022-09-01T04:28:50.980Z,49.48
2022-09-01T04:31:20.989Z,49.64
2022-09-01T04:33:50.156Z,49.42
2022-09-01T04:36:21.120Z,49.67
2022-09-01T04:38:49.348Z,49.45
2022-09-01T04:41:17.870Z,49.54
2022-09-01T04:43:47.386Z,49.50
2022-09-01T04:46:15.462Z,49.33
2022-09-01T04:48:46.028Z,49.43
2022-09-01T04:51:15.423Z,49.43
2022-09-01T04:53:48.856Z,49.44
2022-09-01T04:56:21.531Z,49.44
2022-09-01T04:58:48.135Z,49.52
2022-09-01T05:01:21.815Z,49.52
2022-09-01T05:04:03.895Z,49.36
2022-09-01T05:06:33.929Z,49.32
2022-09-01T05:09:00.584Z,49.47
2022-09-01T05:11:27.814Z,49.55
2022-09-01T05:13:57.649Z,49.56
2022-09-01T05:16:25.820Z,49.47
2022-09-01T05:18:54.236Z,49.32
2022-09-01T05:21:24.649Z,49.50
2022-09-01T05:23:52.012Z,49.49
2022-09-01T05:26:22.091Z,49.44
2022-09-01T05:28:50.704Z,49.34
2022-09-01T05:31:20.044Z,49.48
2022-09-01T05:33:48.447Z,49.55
2022-09-01T05:36:18.090Z,49.42
2022-09-01T05:38:45.455Z,49.37
2022-09-01T05:41:17.428Z,49.40
2022-09-01T05:43:55.097Z,49.40
2022-09-01T05:46:28.209Z,49.57
2022-09-01T05:48:56.221Z,49.64
2022-09-01T05:51:44.003Z,49.50
2022-09-01T05:54:12.494Z,49.53
2022-09-01T05:56:44.043Z,49.17
2022-09-01T05:59:27.763Z,49.29
2022-09-01T06:01:55.238Z,49.19
2022-09-01T06:04:22.976Z,49.34
2022-09-01T06:07:06.782Z,49.24
2022-09-01T06:09:38.603Z,49.42
2022-09-01T06:12:06.738Z,48.95
2022-09-01T06:14:33.663Z,49.28
2022-09-01T06:17:01.008Z,49.30
2022-09-01T06:19:28.582Z,49.30
2022-09-01T06:21:55.692Z,49.17
2022-09-01T06:24:22.257Z,49.26
2022-09-01T06:26:48.783Z,49.05
2022-09-01T06:29:15.739Z,49.27
2022-09-01T06:31:43.467Z,49.30
2022-09-01T06:34:18.128Z,49.21
2022-09-01T06:36:45.859Z,49.14
2022-09-01T06:39:19.797Z,49.37
2022-09-01T06:41:49.489Z,49.04
2022-09-01T06:44:22.378Z,49.32
2022-09-01T06:46:51.703Z,49.24
2022-09-01T06:49:23.686Z,49.48
2022-09-01T06:51:52.816Z,50.43
2022-09-01T06:54:21.076Z,49.97
2022-09-01T06:56:51.938Z,50.79
2022-09-01T06:59:21.055Z,48.59
2022-09-01T07:01:49.235Z,48.45
2022-09-01T07:04:20.189Z,48.36
2022-09-01T07:07:00.465Z,49.69
2022-09-01T07:09:47.947Z,49.99
2022-09-01T07:12:27.911Z,50.02
2022-09-01T07:17:49.106Z,50.09
2022-09-01T07:20:24.742Z,50.29
2022-09-01T07:23:08.393Z,50.27
2022-09-01T07:28:36.053Z,50.19
2022-09-01T07:33:55.713Z,49.93
2022-09-01T07:45:27.145Z,49.27
2022-09-01T07:47:54.793Z,49.23
2022-09-01T07:51:34.187Z,49.23
2022-09-01T07:53:12.500Z,49.54
2022-09-01T07:55:44.004Z,49.55
2022-09-01T07:58:11.834Z,49.61
2022-09-01T08:00:40.094Z,50.04
2022-09-01T08:03:06.836Z,49.68
2022-09-01T08:05:33.899Z,49.73
2022-09-01T08:08:01.236Z,49.67
2022-09-01T08:10:28.236Z,49.83
2022-09-01T08:12:57.839Z,50.09
2022-09-01T08:16:06.345Z,49.70
2022-09-01T08:18:14.566Z,49.08
2022-09-01T08:20:45.605Z,48.66
2022-09-01T08:23:15.705Z,47.88
2022-09-01T08:25:44.138Z,47.89
2022-09-01T08:28:12.151Z,48.01
2022-09-01T08:30:40.390Z,47.74
2022-09-01T08:33:11.164Z,47.61
2022-09-01T08:35:42.531Z,47.61
2022-09-01T08:38:09.905Z,47.67
2022-09-01T08:40:37.444Z,47.70
2022-09-01T08:43:19.120Z,47.78
2022-09-01T08:45:56.182Z,47.34
2022-09-01T08:51:47.147Z,46.97
2022-09-01T08:54:29.989Z,46.86
2022-09-01T08:57:05.191Z,46.94
2022-09-01T08:59:31.835Z,46.75
2022-09-01T09:02:12.089Z,46.47
2022-09-01T09:04:52.019Z,46.30
2022-09-01T09:07:33.039Z,46.33
2022-09-01T09:10:10.718Z,46.28
2022-09-01T09:13:08.251Z,45.73
2022-09-01T09:15:47.453Z,45.97
2022-09-01T09:18:38.920Z,45.36
2022-09-01T09:21:22.302Z,45.39
2022-09-01T09:23:55.901Z,45.30
2022-09-01T09:26:22.605Z,45.28
2022-09-01T09:33:53.981Z,44.96
2022-09-01T09:36:25.516Z,44.98
2022-09-01T09:39:12.898Z,44.88
2022-09-01T09:41:41.338Z,44.54
2022-09-01T09:44:11.566Z,44.62
2022-09-01T09:46:43.644Z,44.82
2022-09-01T09:49:34.589Z,44.67
2022-09-01T09:52:09.783Z,44.48
2022-09-01T09:54:39.243Z,44.20
2022-09-01T09:57:08.791Z,44.36
2022-09-01T10:00:03.307Z,44.55
2022-09-01T10:02:32.754Z,44.58
2022-09-01T10:05:02.501Z,44.93
2022-09-01T10:07:37.989Z,44.39
2022-09-01T10:10:27.069Z,44.35
2022-09-01T10:12:55.255Z,44.10
2022-09-01T10:15:25.508Z,44.43
2022-09-01T10:18:14.036Z,44.51
2022-09-01T10:20:48.990Z,44.65
2022-09-01T10:23:15.805Z,44.62
2022-09-01T10:25:43.447Z,44.70
2022-09-01T10:28:20.885Z,44.74
2022-09-01T10:33:20.782Z,44.33
2022-09-01T10:35:51.986Z,43.81
2022-09-01T10:38:22.648Z,43.63
2022-09-01T10:41:07.347Z,43.63
2022-09-01T10:43:41.536Z,43.56
2022-09-01T10:46:39.063Z,43.81
2022-09-01T10:49:33.717Z,44.06
2022-09-01T10:52:07.545Z,43.83
2022-09-01T10:54:51.136Z,44.10
2022-09-01T10:57:27.053Z,44.08
2022-09-01T10:59:57.951Z,43.64
2022-09-01T11:02:27.623Z,43.80
2022-09-01T11:04:54.471Z,43.85
2022-09-01T11:07:50.065Z,43.45
2022-09-01T11:10:35.389Z,43.75
2022-09-01T11:13:20.217Z,43.83
2022-09-01T11:15:48.551Z,44.01
2022-09-01T11:20:46.996Z,44.17
2022-09-01T11:23:22.199Z,44.35
2022-09-01T11:26:19.043Z,44.61
2022-09-01T11:28:39.102Z,45.11
2022-09-01T11:31:06.144Z,45.24
2022-09-01T11:33:52.866Z,45.89
2022-09-01T11:36:35.944Z,45.95
2022-09-01T11:39:26.773Z,46.25
2022-09-01T11:42:00.762Z,46.35
2022-09-01T11:44:51.883Z,46.60
2022-09-01T11:47:27.190Z,46.74
2022-09-01T11:50:04.784Z,47.09
2022-09-01T11:52:36.635Z,47.15
2022-09-01T11:55:05.669Z,47.00
2022-09-01T11:57:37.789Z,47.15
2022-09-01T12:00:25.159Z,47.11
2022-09-01T12:02:54.871Z,47.67
2022-09-01T12:05:34.726Z,47.45
2022-09-01T12:08:24.114Z,47.82
2022-09-01T12:10:51.458Z,47.82
2022-09-01T12:13:22.719Z,47.85
2022-09-01T12:16:17.350Z,48.23
2022-09-01T12:18:51.371Z,48.10
2022-09-01T12:21:25.361Z,48.28
2022-09-01T12:23:52.673Z,48.33
2022-09-01T12:26:20.871Z,48.57
2022-09-01T12:28:49.754Z,48.70
2022-09-01T12:31:22.031Z,48.57
2022-09-01T12:33:49.888Z,48.82
2022-09-01T12:36:22.195Z,48.64
2022-09-01T12:38:49.408Z,48.68
2022-09-01T12:41:36.403Z,48.90
2022-09-01T12:44:30.000Z,48.53
2022-09-01T12:47:18.134Z,48.38
2022-09-01T12:49:50.490Z,48.14
2022-09-01T12:52:19.941Z,48.46
2022-09-01T12:54:49.559Z,48.57
2022-09-01T12:57:51.315Z,48.53
2022-09-01T13:00:24.190Z,48.41
2022-09-01T13:02:53.212Z,48.66
2022-09-01T13:05:42.497Z,48.54
2022-09-01T13:08:13.354Z,48.75
2022-09-01T13:10:46.487Z,48.39
2022-09-01T13:13:15.214Z,47.93
2022-09-01T13:15:45.378Z,48.07
2022-09-01T13:18:12.199Z,48.20
2022-09-01T13:20:38.764Z,48.01
2022-09-01T13:23:05.499Z,48.23
2022-09-01T13:25:32.044Z,48.09
2022-09-01T13:28:00.416Z,48.09
2022-09-01T13:30:28.529Z,48.08
2022-09-01T13:35:42.692Z,48.21
2022-09-01T13:38:09.817Z,48.03
2022-09-01T13:40:36.468Z,48.23
2022-09-01T13:43:04.707Z,48.45
2022-09-01T13:45:31.990Z,48.30
2022-09-01T13:53:36.481Z,48.22
2022-09-01T13:56:03.440Z,48.59
2022-09-01T13:58:30.077Z,48.35
2022-09-01T14:00:59.944Z,48.33
2022-09-01T14:03:26.719Z,48.51
2022-09-01T14:05:53.890Z,48.64
2022-09-01T14:08:22.791Z,48.60
2022-09-01T14:10:52.122Z,48.65
2022-09-01T14:13:24.128Z,48.56
2022-09-01T14:15:53.344Z,48.51
2022-09-01T14:18:21.942Z,46.43
2022-09-01T14:20:51.042Z,45.49
2022-09-01T14:23:18.858Z,46.52
2022-09-01T14:25:48.356Z,46.50
2022-09-01T14:28:16.413Z,46.59
2022-09-01T14:30:46.794Z,46.90
2022-09-01T14:33:13.638Z,47.09
2022-09-01T14:35:44.054Z,47.27
2022-09-01T14:38:11.746Z,47.13
2022-09-01T14:40:40.563Z,47.20
2022-09-01T14:43:14.251Z,47.32
2022-09-01T14:45:44.751Z,47.42
2022-09-01T14:48:11.782Z,47.57
2022-09-01T14:50:42.469Z,46.54
2022-09-01T14:53:09.245Z,46.97
2022-09-01T14:55:36.244Z,47.41
2022-09-01T14:58:03.234Z,47.43
2022-09-01T15:00:31.507Z,47.74
2022-09-01T15:02:58.391Z,47.46
2022-09-01T15:05:25.438Z,48.00
2022-09-01T15:07:52.594Z,48.16
2022-09-01T15:10:25.311Z,47.96
2022-09-01T15:12:57.394Z,48.29
2022-09-01T15:15:25.572Z,48.00
2022-09-01T15:17:53.147Z,48.00
2022-09-01T15:20:38.174Z,47.91
2022-09-01T15:23:05.366Z,48.05
2022-09-01T15:25:31.916Z,47.83
2022-09-01T15:27:58.487Z,47.69
2022-09-01T15:30:25.320Z,47.74
2022-09-01T15:32:54.047Z,47.81
2022-09-01T15:35:21.590Z,47.84
2022-09-01T15:37:49.937Z,48.03
2022-09-01T15:40:17.400Z,48.03
2022-09-01T15:42:44.387Z,47.95
2022-09-01T15:45:14.935Z,48.20
2022-09-01T15:47:45.653Z,48.07
2022-09-01T15:50:21.611Z,48.09
2022-09-01T15:52:55.230Z,48.16
2022-09-01T15:55:26.191Z,47.90
2022-09-01T15:57:55.027Z,47.96
2022-09-01T16:00:24.755Z,48.02
2022-09-01T16:02:54.284Z,47.97
2022-09-01T16:05:20.951Z,47.99
2022-09-01T16:07:47.683Z,47.77
2022-09-01T16:10:14.634Z,47.85
2022-09-01T16:12:44.149Z,48.03
2022-09-01T16:15:14.432Z,48.03
2022-09-01T16:18:26.129Z,48.00
2022-09-01T16:21:25.394Z,48.07
2022-09-01T16:23:53.157Z,48.00
2022-09-01T16:26:23.143Z,48.19
2022-09-01T16:28:52.831Z,48.57
2022-09-01T16:31:28.518Z,48.74
2022-09-01T16:33:57.172Z,48.66
2022-09-01T16:36:26.379Z,48.75
2022-09-01T16:39:06.767Z,48.93
2022-09-01T16:41:48.256Z,48.80
2022-09-01T16:44:17.352Z,48.86
2022-09-01T16:46:54.143Z,48.83
2022-09-01T16:49:42.291Z,49.06
2022-09-01T16:52:13.060Z,49.36
2022-09-01T16:55:05.539Z,49.37
2022-09-01T16:58:01.211Z,49.47
2022-09-01T17:00:38.217Z,49.52
2022-09-01T17:03:17.082Z,49.50
2022-09-01T17:05:43.963Z,49.28
2022-09-01T17:08:32.502Z,49.58
2022-09-01T17:11:07.762Z,49.28
2022-09-01T17:13:40.158Z,49.48
2022-09-01T17:16:22.811Z,49.49
2022-09-01T17:18:59.978Z,49.47
2022-09-01T17:21:38.114Z,49.57
2022-09-01T17:24:42.932Z,49.18
2022-09-01T17:27:33.980Z,49.10
2022-09-01T17:30:01.590Z,48.67
2022-09-01T17:32:49.749Z,49.08
2022-09-01T17:35:53.127Z,48.79
2022-09-01T17:38:48.137Z,48.69
2022-09-01T17:41:34.716Z,48.67
2022-09-01T17:44:07.151Z,48.76
2022-09-01T17:46:42.543Z,48.81
2022-09-01T17:49:17.220Z,49.19
2022-09-01T17:52:08.171Z,50.01
2022-09-01T17:54:49.166Z,49.96
2022-09-01T17:57:35.063Z,49.75
2022-09-01T18:00:23.004Z,49.65
2022-09-01T18:02:58.547Z,49.55
2022-09-01T18:05:26.584Z,49.76
2022-09-01T18:08:30.840Z,49.30
2022-09-01T18:11:02.343Z,49.06
2022-09-01T18:13:52.973Z,49.32
2022-09-01T18:16:25.808Z,49.41
2022-09-01T18:18:53.238Z,48.99
2022-09-01T18:21:36.542Z,48.94
2022-09-01T18:24:15.125Z,49.01
2022-09-01T18:26:46.335Z,48.81
2022-09-01T18:29:13.299Z,48.43
2022-09-01T18:32:03.888Z,48.56
2022-09-01T18:35:02.650Z,48.70
2022-09-01T18:37:58.197Z,48.41
2022-09-01T18:40:33.769Z,48.45
2022-09-01T18:43:14.089Z,48.55
2022-09-01T18:45:49.997Z,48.60
2022-09-01T18:48:23.599Z,48.44
2022-09-01T18:51:00.855Z,48.21
2022-09-01T18:53:41.643Z,48.47
2022-09-01T18:56:23.119Z,48.44
2022-09-01T18:59:15.706Z,48.37
2022-09-01T19:02:00.969Z,48.64
2022-09-01T19:04:52.300Z,48.66
2022-09-01T19:07:53.790Z,48.68
2022-09-01T19:10:49.857Z,48.80
2022-09-01T19:13:28.029Z,48.77
2022-09-01T19:16:13.861Z,48.41
2022-09-01T19:18:52.138Z,48.42
2022-09-01T19:21:21.402Z,48.33
2022-09-01T19:23:56.927Z,48.52
2022-09-01T19:26:25.331Z,48.38
2022-09-01T19:28:54.286Z,48.50
2022-09-01T19:31:26.871Z,48.35
2022-09-01T19:34:00.971Z,48.48
2022-09-01T19:36:43.633Z,48.40
2022-09-01T19:39:14.964Z,48.36
2022-09-01T19:42:03.545Z,48.45
2022-09-01T19:44:48.391Z,48.19
2022-09-01T19:47:26.956Z,47.84
2022-09-01T19:50:24.266Z,47.98
2022-09-01T19:53:04.876Z,48.29
2022-09-01T19:55:41.422Z,48.22
2022-09-01T19:58:35.363Z,48.12
2022-09-01T20:01:05.675Z,47.88
2022-09-01T20:03:57.130Z,48.17
2022-09-01T20:06:35.322Z,48.09
2022-09-01T20:09:12.554Z,47.91
2022-09-01T20:11:54.742Z,48.07
2022-09-01T20:14:52.381Z,47.92
2022-09-01T20:17:51.914Z,48.18
2022-09-01T20:20:38.699Z,48.59
2022-09-01T20:23:28.098Z,48.64
2022-09-01T20:26:13.234Z,48.89
2022-09-01T20:28:59.265Z,49.04
2022-09-01T20:31:32.220Z,49.04
2022-09-01T20:33:58.668Z,49.22
2022-09-01T20:36:29.474Z,49.02
2022-09-01T20:39:39.646Z,48.83
2022-09-01T20:42:15.627Z,49.14
2022-09-01T20:44:55.296Z,49.17
2022-09-01T20:47:27.946Z,49.06
2022-09-01T20:49:54.782Z,48.97
2022-09-01T20:52:40.276Z,49.38
2022-09-01T20:55:16.850Z,49.45
2022-09-01T20:58:01.706Z,48.99
2022-09-01T21:00:30.158Z,49.05
2022-09-01T21:03:12.153Z,49.19
2022-09-01T21:06:06.135Z,49.31
2022-09-01T21:08:38.335Z,49.23
2022-09-01T21:11:04.791Z,49.11
2022-09-01T21:13:53.001Z,49.22
2022-09-01T21:16:43.741Z,49.31
2022-09-01T21:19:36.500Z,49.20
2022-09-01T21:22:05.184Z,48.90
2022-09-01T21:24:32.256Z,49.17
2022-09-01T21:27:01.923Z,49.32
2022-09-01T21:29:46.916Z,49.15
2022-09-01T21:32:16.053Z,49.35
2022-09-01T21:34:44.164Z,49.34
2022-09-01T21:37:11.615Z,49.42
2022-09-01T21:39:38.170Z,49.05
2022-09-01T21:42:07.910Z,49.36
2022-09-01T21:44:35.278Z,49.02
2022-09-01T21:47:03.216Z,49.44
2022-09-01T21:49:29.791Z,49.52
2022-09-01T21:51:59.814Z,49.23
2022-09-01T21:54:26.393Z,49.26
2022-09-01T21:56:53.446Z,49.41
2022-09-01T21:59:20.476Z,48.79
2022-09-01T22:01:49.830Z,49.18
2022-09-01T22:04:18.254Z,49.17
2022-09-01T22:06:46.222Z,48.85
2022-09-01T22:09:21.255Z,48.97
2022-09-01T22:11:50.627Z,49.04
2022-09-01T22:14:19.353Z,48.92
2022-09-01T22:16:47.135Z,48.83
2022-09-01T22:19:13.909Z,48.87
2022-09-01T22:21:41.779Z,48.71
2022-09-01T22:24:08.980Z,48.84
2022-09-01T22:26:35.814Z,48.75
2022-09-01T22:29:06.059Z,48.75
2022-09-01T22:31:35.056Z,48.73
2022-09-01T22:34:01.772Z,48.69
2022-09-01T22:36:40.409Z,48.75
2022-09-01T22:39:09.248Z,48.76
2022-09-01T22:41:38.033Z,48.79
2022-09-01T22:44:05.092Z,48.75
2022-09-01T22:46:34.359Z,48.61
2022-09-01T22:49:01.270Z,48.85
2022-09-01T22:51:28.649Z,48.68
2022-09-01T22:53:55.873Z,48.87
2022-09-01T22:56:26.195Z,48.76
2022-09-01T22:58:54.753Z,48.68
2022-09-01T23:01:24.523Z,48.71
2022-09-01T23:03:52.090Z,48.82
2022-09-01T23:06:28.002Z,48.74
2022-09-01T23:08:56.189Z,48.80
2022-09-01T23:11:23.109Z,48.77
2022-09-01T23:13:49.780Z,48.72
2022-09-01T23:16:16.803Z,48.71
2022-09-01T23:18:45.652Z,48.76
2022-09-01T23:21:14.448Z,48.84
2022-09-01T23:23:41.500Z,48.68
2022-09-01T23:26:10.764Z,48.73
2022-09-01T23:28:38.529Z,48.70
2022-09-01T23:31:10.999Z,48.67
2022-09-01T23:33:37.909Z,48.55
2022-09-01T23:36:10.613Z,48.74
2022-09-01T23:38:38.001Z,48.50
2022-09-01T23:41:08.904Z,48.72
2022-09-01T23:43:35.892Z,48.79
2022-09-01T23:46:02.796Z,48.83
2022-09-01T23:48:30.108Z,48.80
2022-09-01T23:50:57.893Z,48.82
2022-09-01T23:53:31.929Z,48.65
2022-09-01T23:56:02.157Z,48.73
2022-09-01T23:58:30.606Z,48.74
